sensor_id;sensor_type;location;lat;lon;timestamp;pressure;altitude;pressure_sealevel;temperature;humidity
22649;BME280;11491;41.942;24.220;2023-03-31T00:00:56;89897.19;;;4.80;68.16
22649;BME280;11491;41.942;24.220;2023-03-31T00:03:25;89891.56;;;4.73;67.81
22649;BME280;11491;41.942;24.220;2023-03-31T00:05:54;89887.47;;;4.67;67.71
22649;BME280;11491;41.942;24.220;2023-03-31T00:08:22;89883.13;;;4.71;67.71
22649;BME280;11491;41.942;24.220;2023-03-31T00:10:51;89883.09;;;4.53;67.75
22649;BME280;11491;41.942;24.220;2023-03-31T00:13:17;89887.75;;;4.57;67.64
22649;BME280;11491;41.942;24.220;2023-03-31T00:15:44;89882.59;;;4.51;67.75
22649;BME280;11491;41.942;24.220;2023-03-31T00:18:11;89872.88;;;4.29;68.77
22649;BME280;11491;41.942;24.220;2023-03-31T00:20:38;89880.22;;;4.32;68.60
22649;BME280;11491;41.942;24.220;2023-03-31T00:23:07;89882.19;;;4.18;68.68
22649;BME280;11491;41.942;24.220;2023-03-31T00:25:38;89865.34;;;4.14;69.21
22649;BME280;11491;41.942;24.220;2023-03-31T00:28:07;89871.25;;;4.11;68.83
22649;BME280;11491;41.942;24.220;2023-03-31T00:30:33;89867.00;;;4.01;69.32
22649;BME280;11491;41.942;24.220;2023-03-31T00:33:00;89871.88;;;4.08;68.83
22649;BME280;11491;41.942;24.220;2023-03-31T00:35:27;89873.84;;;4.02;68.76
22649;BME280;11491;41.942;24.220;2023-03-31T00:37:54;89875.94;;;3.83;69.52
22649;BME280;11491;41.942;24.220;2023-03-31T00:40:22;89874.97;;;3.79;70.16
22649;BME280;11491;41.942;24.220;2023-03-31T00:42:49;89864.94;;;3.67;70.87
22649;BME280;11491;41.942;24.220;2023-03-31T00:45:27;89868.63;;;3.57;71.22
22649;BME280;11491;41.942;24.220;2023-03-31T00:47:57;89874.91;;;3.48;72.02
22649;BME280;11491;41.942;24.220;2023-03-31T00:50:31;89866.22;;;3.47;71.62
22649;BME280;11491;41.942;24.220;2023-03-31T00:53:02;89869.75;;;3.42;71.74
22649;BME280;11491;41.942;24.220;2023-03-31T00:55:34;89868.25;;;3.50;71.39
22649;BME280;11491;41.942;24.220;2023-03-31T00:58:02;89860.81;;;3.52;71.64
22649;BME280;11491;41.942;24.220;2023-03-31T01:00:32;89872.50;;;3.60;71.35
22649;BME280;11491;41.942;24.220;2023-03-31T01:03:01;89860.31;;;3.50;71.16
22649;BME280;11491;41.942;24.220;2023-03-31T01:05:33;89861.78;;;3.56;70.81
22649;BME280;11491;41.942;24.220;2023-03-31T01:08:01;89854.56;;;3.48;71.23
22649;BME280;11491;41.942;24.220;2023-03-31T01:10:32;89857.75;;;3.36;71.82
22649;BME280;11491;41.942;24.220;2023-03-31T01:13:07;89845.28;;;3.28;71.95
22649;BME280;11491;41.942;24.220;2023-03-31T01:15:35;89860.31;;;3.28;72.39
22649;BME280;11491;41.942;24.220;2023-03-31T01:18:03;89849.72;;;3.41;71.10
22649;BME280;11491;41.942;24.220;2023-03-31T01:20:36;89844.34;;;3.33;71.38
22649;BME280;11491;41.942;24.220;2023-03-31T01:23:32;89837.16;;;3.24;71.52
22649;BME280;11491;41.942;24.220;2023-03-31T01:29:11;89840.28;;;3.27;71.85
22649;BME280;11491;41.942;24.220;2023-03-31T01:32:04;89837.09;;;3.16;71.43
22649;BME280;11491;41.942;24.220;2023-03-31T01:38:00;89816.72;;;2.57;74.23
22649;BME280;11491;41.942;24.220;2023-03-31T01:40:49;89814.91;;;2.80;73.57
22649;BME280;11491;41.942;24.220;2023-03-31T01:43:22;89829.19;;;2.79;73.48
22649;BME280;11491;41.942;24.220;2023-03-31T01:45:56;89828.59;;;2.83;73.04
22649;BME280;11491;41.942;24.220;2023-03-31T01:48:32;89824.59;;;2.49;74.31
22649;BME280;11491;41.942;24.220;2023-03-31T01:51:07;89811.66;;;2.47;74.54
22649;BME280;11491;41.942;24.220;2023-03-31T01:53:44;89816.56;;;2.54;74.17
22649;BME280;11491;41.942;24.220;2023-03-31T01:56:19;89824.00;;;2.38;74.81
22649;BME280;11491;41.942;24.220;2023-03-31T01:58:50;89804.47;;;2.39;74.73
22649;BME280;11491;41.942;24.220;2023-03-31T02:01:21;89803.84;;;2.56;74.10
22649;BME280;11491;41.942;24.220;2023-03-31T02:03:54;89804.69;;;2.65;74.42
22649;BME280;11491;41.942;24.220;2023-03-31T02:06:25;89809.13;;;2.56;74.86
22649;BME280;11491;41.942;24.220;2023-03-31T02:08:57;89806.72;;;2.68;74.44
22649;BME280;11491;41.942;24.220;2023-03-31T02:11:29;89806.31;;;2.75;74.33
22649;BME280;11491;41.942;24.220;2023-03-31T02:13:58;89797.75;;;2.69;74.48
22649;BME280;11491;41.942;24.220;2023-03-31T02:16:29;89802.94;;;2.61;75.16
22649;BME280;11491;41.942;24.220;2023-03-31T02:19:00;89780.38;;;2.54;75.27
22649;BME280;11491;41.942;24.220;2023-03-31T02:21:31;89802.78;;;2.79;74.06
22649;BME280;11491;41.942;24.220;2023-03-31T02:24:00;89795.97;;;2.78;73.88
22649;BME280;11491;41.942;24.220;2023-03-31T02:26:34;89799.06;;;2.80;74.07
22649;BME280;11491;41.942;24.220;2023-03-31T02:29:03;89795.47;;;2.76;73.91
22649;BME280;11491;41.942;24.220;2023-03-31T02:31:38;89801.81;;;2.75;74.38
22649;BME280;11491;41.942;24.220;2023-03-31T02:34:07;89799.13;;;2.67;74.77
22649;BME280;11491;41.942;24.220;2023-03-31T02:36:35;89795.50;;;2.63;74.96
22649;BME280;11491;41.942;24.220;2023-03-31T02:39:05;89807.31;;;2.65;74.98
22649;BME280;11491;41.942;24.220;2023-03-31T02:41:34;89809.63;;;2.80;75.08
22649;BME280;11491;41.942;24.220;2023-03-31T02:44:01;89814.31;;;2.84;75.29
22649;BME280;11491;41.942;24.220;2023-03-31T02:46:28;89802.06;;;2.88;74.66
22649;BME280;11491;41.942;24.220;2023-03-31T02:48:57;89805.56;;;2.97;75.47
22649;BME280;11491;41.942;24.220;2023-03-31T02:51:48;89799.78;;;2.95;75.15
22649;BME280;11491;41.942;24.220;2023-03-31T02:54:37;89806.66;;;2.96;74.50
22649;BME280;11491;41.942;24.220;2023-03-31T02:57:19;89810.00;;;2.88;74.88
22649;BME280;11491;41.942;24.220;2023-03-31T02:59:54;89804.47;;;2.98;74.40
22649;BME280;11491;41.942;24.220;2023-03-31T03:02:29;89811.81;;;2.78;74.98
22649;BME280;11491;41.942;24.220;2023-03-31T03:05:11;89805.31;;;2.85;75.88
22649;BME280;11491;41.942;24.220;2023-03-31T03:07:45;89815.03;;;2.98;75.28
22649;BME280;11491;41.942;24.220;2023-03-31T03:10:19;89817.38;;;2.99;74.98
22649;BME280;11491;41.942;24.220;2023-03-31T03:12:53;89815.84;;;2.98;74.29
22649;BME280;11491;41.942;24.220;2023-03-31T03:15:25;89825.03;;;3.01;74.61
22649;BME280;11491;41.942;24.220;2023-03-31T03:17:54;89830.88;;;2.98;75.32
22649;BME280;11491;41.942;24.220;2023-03-31T03:20:22;89830.06;;;3.11;75.09
22649;BME280;11491;41.942;24.220;2023-03-31T03:22:49;89838.91;;;2.93;75.80
22649;BME280;11491;41.942;24.220;2023-03-31T03:25:17;89849.25;;;3.03;76.32
22649;BME280;11491;41.942;24.220;2023-03-31T03:27:45;89833.63;;;2.93;76.46
22649;BME280;11491;41.942;24.220;2023-03-31T03:30:13;89834.38;;;3.07;76.74
22649;BME280;11491;41.942;24.220;2023-03-31T03:32:40;89836.72;;;3.09;76.94
22649;BME280;11491;41.942;24.220;2023-03-31T03:35:08;89834.03;;;3.22;76.68
22649;BME280;11491;41.942;24.220;2023-03-31T03:37:35;89839.53;;;3.35;76.50
22649;BME280;11491;41.942;24.220;2023-03-31T03:40:03;89857.34;;;3.43;75.94
22649;BME280;11491;41.942;24.220;2023-03-31T03:42:30;89852.59;;;3.54;76.39
22649;BME280;11491;41.942;24.220;2023-03-31T03:44:57;89851.81;;;3.53;76.32
22649;BME280;11491;41.942;24.220;2023-03-31T03:47:25;89861.16;;;3.59;76.42
22649;BME280;11491;41.942;24.220;2023-03-31T03:49:52;89864.66;;;3.69;76.18
22649;BME280;11491;41.942;24.220;2023-03-31T03:52:19;89852.78;;;3.88;74.97
22649;BME280;11491;41.942;24.220;2023-03-31T03:54:46;89848.44;;;3.93;75.04
22649;BME280;11491;41.942;24.220;2023-03-31T03:57:13;89856.41;;;4.01;74.73
22649;BME280;11491;41.942;24.220;2023-03-31T03:59:39;89846.44;;;3.98;74.68
22649;BME280;11491;41.942;24.220;2023-03-31T04:02:06;89848.22;;;4.12;75.08
22649;BME280;11491;41.942;24.220;2023-03-31T04:04:34;89838.44;;;4.21;74.08
22649;BME280;11491;41.942;24.220;2023-03-31T04:07:01;89835.66;;;4.26;74.34
22649;BME280;11491;41.942;24.220;2023-03-31T04:09:28;89824.88;;;4.22;74.24
22649;BME280;11491;41.942;24.220;2023-03-31T04:11:55;89822.91;;;4.28;74.01
22649;BME280;11491;41.942;24.220;2023-03-31T04:14:21;89809.00;;;4.22;74.53
22649;BME280;11491;41.942;24.220;2023-03-31T04:16:49;89809.19;;;4.26;74.29
22649;BME280;11491;41.942;24.220;2023-03-31T04:19:16;89800.78;;;4.24;74.80
22649;BME280;11491;41.942;24.220;2023-03-31T04:21:44;89798.94;;;4.33;75.46
22649;BME280;11491;41.942;24.220;2023-03-31T04:24:15;89787.41;;;4.29;75.29
22649;BME280;11491;41.942;24.220;2023-03-31T04:26:46;89774.00;;;4.34;74.96
22649;BME280;11491;41.942;24.220;2023-03-31T04:29:15;89797.97;;;4.29;74.73
22649;BME280;11491;41.942;24.220;2023-03-31T04:31:44;89785.84;;;4.28;75.23
22649;BME280;11491;41.942;24.220;2023-03-31T04:34:12;89798.03;;;4.46;74.94
22649;BME280;11491;41.942;24.220;2023-03-31T04:36:39;89800.38;;;4.48;74.10
22649;BME280;11491;41.942;24.220;2023-03-31T04:39:13;89805.50;;;4.44;74.86
22649;BME280;11491;41.942;24.220;2023-03-31T04:41:40;89805.38;;;4.09;76.29
22649;BME280;11491;41.942;24.220;2023-03-31T04:44:07;89805.13;;;3.80;78.00
22649;BME280;11491;41.942;24.220;2023-03-31T04:46:34;89798.13;;;3.84;78.28
22649;BME280;11491;41.942;24.220;2023-03-31T04:49:01;89789.44;;;3.92;78.16
22649;BME280;11491;41.942;24.220;2023-03-31T04:51:30;89794.47;;;4.02;78.47
22649;BME280;11491;41.942;24.220;2023-03-31T04:53:56;89795.47;;;4.24;77.14
22649;BME280;11491;41.942;24.220;2023-03-31T04:56:24;89802.94;;;4.22;77.19
22649;BME280;11491;41.942;24.220;2023-03-31T04:58:51;89809.53;;;4.33;76.89
22649;BME280;11491;41.942;24.220;2023-03-31T05:01:18;89806.13;;;4.41;77.57
22649;BME280;11491;41.942;24.220;2023-03-31T05:03:45;89798.03;;;4.46;78.05
22649;BME280;11491;41.942;24.220;2023-03-31T05:06:13;89801.31;;;4.61;76.42
22649;BME280;11491;41.942;24.220;2023-03-31T05:08:40;89799.75;;;4.42;76.62
22649;BME280;11491;41.942;24.220;2023-03-31T05:11:06;89797.53;;;4.44;76.28
22649;BME280;11491;41.942;24.220;2023-03-31T05:13:35;89794.31;;;4.47;76.63
22649;BME280;11491;41.942;24.220;2023-03-31T05:16:06;89783.72;;;4.47;76.98
22649;BME280;11491;41.942;24.220;2023-03-31T05:18:32;89783.56;;;4.61;77.29
22649;BME280;11491;41.942;24.220;2023-03-31T05:21:11;89780.63;;;4.80;77.98
22649;BME280;11491;41.942;24.220;2023-03-31T05:23:38;89775.16;;;4.94;76.92
22649;BME280;11491;41.942;24.220;2023-03-31T05:26:05;89782.03;;;5.04;77.38
22649;BME280;11491;41.942;24.220;2023-03-31T05:28:32;89783.13;;;5.20;76.54
22649;BME280;11491;41.942;24.220;2023-03-31T05:31:02;89781.84;;;5.26;77.27
22649;BME280;11491;41.942;24.220;2023-03-31T05:33:29;89779.03;;;5.31;76.43
22649;BME280;11491;41.942;24.220;2023-03-31T05:35:56;89781.69;;;5.31;75.80
22649;BME280;11491;41.942;24.220;2023-03-31T05:38:24;89779.53;;;5.25;76.95
22649;BME280;11491;41.942;24.220;2023-03-31T05:40:53;89765.19;;;5.08;77.46
22649;BME280;11491;41.942;24.220;2023-03-31T05:43:20;89768.28;;;5.19;77.46
22649;BME280;11491;41.942;24.220;2023-03-31T05:45:47;89764.84;;;5.36;76.99
22649;BME280;11491;41.942;24.220;2023-03-31T05:48:15;89765.34;;;5.29;77.39
22649;BME280;11491;41.942;24.220;2023-03-31T05:50:42;89769.84;;;5.29;77.55
22649;BME280;11491;41.942;24.220;2023-03-31T05:53:09;89759.38;;;5.50;76.90
22649;BME280;11491;41.942;24.220;2023-03-31T05:55:36;89752.59;;;5.70;77.14
22649;BME280;11491;41.942;24.220;2023-03-31T05:58:03;89761.44;;;5.82;76.93
22649;BME280;11491;41.942;24.220;2023-03-31T06:00:31;89761.88;;;5.93;76.76
22649;BME280;11491;41.942;24.220;2023-03-31T06:02:58;89764.53;;;6.02;76.43
22649;BME280;11491;41.942;24.220;2023-03-31T06:05:26;89774.94;;;6.16;76.76
22649;BME280;11491;41.942;24.220;2023-03-31T06:07:55;89787.53;;;6.28;76.03
22649;BME280;11491;41.942;24.220;2023-03-31T06:10:22;89779.38;;;6.33;75.32
22649;BME280;11491;41.942;24.220;2023-03-31T06:12:49;89782.78;;;6.42;73.91
22649;BME280;11491;41.942;24.220;2023-03-31T06:15:16;89785.06;;;6.52;73.80
22649;BME280;11491;41.942;24.220;2023-03-31T06:17:43;89779.00;;;6.73;73.25
22649;BME280;11491;41.942;24.220;2023-03-31T06:20:10;89773.91;;;6.88;72.61
22649;BME280;11491;41.942;24.220;2023-03-31T06:22:38;89783.38;;;6.98;72.60
22649;BME280;11491;41.942;24.220;2023-03-31T06:25:05;89785.38;;;7.01;72.35
22649;BME280;11491;41.942;24.220;2023-03-31T06:27:32;89783.88;;;7.12;72.55
22649;BME280;11491;41.942;24.220;2023-03-31T06:29:59;89768.91;;;7.29;72.43
22649;BME280;11491;41.942;24.220;2023-03-31T06:32:26;89754.53;;;7.42;71.87
22649;BME280;11491;41.942;24.220;2023-03-31T06:34:52;89756.56;;;7.58;71.17
22649;BME280;11491;41.942;24.220;2023-03-31T06:37:19;89753.56;;;7.80;70.40
22649;BME280;11491;41.942;24.220;2023-03-31T06:39:47;89745.56;;;7.92;69.90
22649;BME280;11491;41.942;24.220;2023-03-31T06:42:14;89744.78;;;7.92;68.40
22649;BME280;11491;41.942;24.220;2023-03-31T06:44:41;89744.69;;;7.88;68.41
22649;BME280;11491;41.942;24.220;2023-03-31T06:47:08;89744.25;;;7.98;68.63
22649;BME280;11491;41.942;24.220;2023-03-31T06:49:35;89736.47;;;7.93;67.97
22649;BME280;11491;41.942;24.220;2023-03-31T06:52:01;89732.94;;;8.02;66.14
22649;BME280;11491;41.942;24.220;2023-03-31T06:54:29;89738.59;;;8.00;65.25
22649;BME280;11491;41.942;24.220;2023-03-31T06:56:57;89732.06;;;8.22;66.92
22649;BME280;11491;41.942;24.220;2023-03-31T06:59:24;89730.75;;;8.53;63.49
22649;BME280;11491;41.942;24.220;2023-03-31T07:01:50;89732.25;;;8.91;62.95
22649;BME280;11491;41.942;24.220;2023-03-31T07:04:17;89734.28;;;9.22;62.52
22649;BME280;11491;41.942;24.220;2023-03-31T07:06:44;89730.50;;;9.51;62.30
22649;BME280;11491;41.942;24.220;2023-03-31T07:09:10;89732.91;;;9.84;59.47
22649;BME280;11491;41.942;24.220;2023-03-31T07:11:37;89734.81;;;10.16;55.90
22649;BME280;11491;41.942;24.220;2023-03-31T07:14:05;89726.75;;;10.44;55.64
22649;BME280;11491;41.942;24.220;2023-03-31T07:16:32;89725.03;;;10.51;53.03
22649;BME280;11491;41.942;24.220;2023-03-31T07:19:00;89713.97;;;10.53;53.75
22649;BME280;11491;41.942;24.220;2023-03-31T07:21:28;89723.63;;;10.73;53.95
22649;BME280;11491;41.942;24.220;2023-03-31T07:23:54;89717.94;;;10.94;53.96
22649;BME280;11491;41.942;24.220;2023-03-31T07:26:21;89708.97;;;11.22;54.58
22649;BME280;11491;41.942;24.220;2023-03-31T07:28:48;89712.22;;;11.51;53.06
22649;BME280;11491;41.942;24.220;2023-03-31T07:31:17;89706.84;;;11.90;53.17
22649;BME280;11491;41.942;24.220;2023-03-31T07:33:44;89696.78;;;12.29;51.05
22649;BME280;11491;41.942;24.220;2023-03-31T07:36:11;89688.13;;;12.62;50.52
22649;BME280;11491;41.942;24.220;2023-03-31T07:38:37;89688.59;;;12.95;52.35
22649;BME280;11491;41.942;24.220;2023-03-31T07:41:04;89689.06;;;13.27;51.80
22649;BME280;11491;41.942;24.220;2023-03-31T07:43:31;89674.66;;;13.42;48.26
22649;BME280;11491;41.942;24.220;2023-03-31T07:45:58;89676.69;;;13.52;49.16
22649;BME280;11491;41.942;24.220;2023-03-31T07:48:26;89675.72;;;13.68;47.04
22649;BME280;11491;41.942;24.220;2023-03-31T07:50:53;89671.88;;;13.69;47.38
22649;BME280;11491;41.942;24.220;2023-03-31T07:53:20;89682.25;;;13.67;47.33
22649;BME280;11491;41.942;24.220;2023-03-31T07:55:46;89681.91;;;13.72;46.16
22649;BME280;11491;41.942;24.220;2023-03-31T07:58:13;89692.41;;;13.50;47.08
22649;BME280;11491;41.942;24.220;2023-03-31T08:00:40;89699.94;;;13.41;48.25
22649;BME280;11491;41.942;24.220;2023-03-31T08:03:07;89693.56;;;13.23;47.70
22649;BME280;11491;41.942;24.220;2023-03-31T08:05:35;89696.38;;;13.03;48.19
22649;BME280;11491;41.942;24.220;2023-03-31T08:08:02;89690.69;;;13.08;47.98
22649;BME280;11491;41.942;24.220;2023-03-31T08:10:29;89672.56;;;13.02;47.94
22649;BME280;11491;41.942;24.220;2023-03-31T08:12:56;89646.63;;;13.09;49.08
22649;BME280;11491;41.942;24.220;2023-03-31T08:15:23;89642.44;;;13.42;49.79
22649;BME280;11491;41.942;24.220;2023-03-31T08:17:49;89647.91;;;13.49;46.55
22649;BME280;11491;41.942;24.220;2023-03-31T08:20:16;89639.63;;;13.69;46.97
22649;BME280;11491;41.942;24.220;2023-03-31T08:22:45;89650.16;;;13.47;47.63
22649;BME280;11491;41.942;24.220;2023-03-31T08:25:11;89644.91;;;13.58;47.51
22649;BME280;11491;41.942;24.220;2023-03-31T08:27:39;89635.75;;;13.63;47.28
22649;BME280;11491;41.942;24.220;2023-03-31T08:30:09;89623.59;;;13.76;49.32
22649;BME280;11491;41.942;24.220;2023-03-31T08:32:36;89631.41;;;13.88;47.51
22649;BME280;11491;41.942;24.220;2023-03-31T08:35:04;89634.56;;;13.97;46.07
22649;BME280;11491;41.942;24.220;2023-03-31T08:37:31;89638.84;;;14.02;47.36
22649;BME280;11491;41.942;24.220;2023-03-31T08:39:59;89637.72;;;14.07;45.82
22649;BME280;11491;41.942;24.220;2023-03-31T08:42:35;89640.81;;;14.09;46.04
22649;BME280;11491;41.942;24.220;2023-03-31T08:45:08;89641.03;;;13.89;45.21
22649;BME280;11491;41.942;24.220;2023-03-31T08:47:38;89638.59;;;13.77;45.58
22649;BME280;11491;41.942;24.220;2023-03-31T08:50:09;89633.03;;;13.96;48.23
22649;BME280;11491;41.942;24.220;2023-03-31T08:52:41;89635.44;;;14.09;45.53
22649;BME280;11491;41.942;24.220;2023-03-31T08:55:15;89627.13;;;14.28;45.40
22649;BME280;11491;41.942;24.220;2023-03-31T08:57:51;89633.59;;;14.68;45.21
22649;BME280;11491;41.942;24.220;2023-03-31T09:00:21;89629.13;;;14.86;43.73
22649;BME280;11491;41.942;24.220;2023-03-31T09:02:52;89625.97;;;14.77;44.58
22649;BME280;11491;41.942;24.220;2023-03-31T09:05:39;89629.13;;;14.86;46.27
22649;BME280;11491;41.942;24.220;2023-03-31T09:08:12;89632.19;;;14.85;43.15
22649;BME280;11491;41.942;24.220;2023-03-31T09:10:51;89612.97;;;14.86;44.93
22649;BME280;11491;41.942;24.220;2023-03-31T09:13:46;89620.28;;;15.74;41.73
22649;BME280;11491;41.942;24.220;2023-03-31T09:16:21;89626.41;;;15.63;41.59
22649;BME280;11491;41.942;24.220;2023-03-31T09:18:52;89620.25;;;15.66;43.28
22649;BME280;11491;41.942;24.220;2023-03-31T09:21:25;89616.31;;;15.42;44.05
22649;BME280;11491;41.942;24.220;2023-03-31T09:23:56;89609.19;;;15.93;41.87
22649;BME280;11491;41.942;24.220;2023-03-31T09:26:33;89615.38;;;16.40;41.52
22649;BME280;11491;41.942;24.220;2023-03-31T09:29:04;89604.50;;;15.79;43.30
22649;BME280;11491;41.942;24.220;2023-03-31T09:31:33;89598.75;;;15.81;41.16
22649;BME280;11491;41.942;24.220;2023-03-31T09:34:11;89595.59;;;15.64;41.63
22649;BME280;11491;41.942;24.220;2023-03-31T09:36:38;89587.25;;;16.27;43.01
22649;BME280;11491;41.942;24.220;2023-03-31T09:39:05;89577.59;;;16.51;39.26
22649;BME280;11491;41.942;24.220;2023-03-31T09:41:33;89567.97;;;16.78;41.86
22649;BME280;11491;41.942;24.220;2023-03-31T09:44:00;89569.38;;;17.26;40.30
22649;BME280;11491;41.942;24.220;2023-03-31T09:46:29;89561.31;;;18.00;40.92
22649;BME280;11491;41.942;24.220;2023-03-31T09:49:00;89560.91;;;18.54;38.96
22649;BME280;11491;41.942;24.220;2023-03-31T09:51:31;89548.63;;;18.42;35.89
22649;BME280;11491;41.942;24.220;2023-03-31T09:54:08;89555.34;;;17.60;37.46
22649;BME280;11491;41.942;24.220;2023-03-31T09:56:46;89557.34;;;17.41;37.68
22649;BME280;11491;41.942;24.220;2023-03-31T09:59:16;89545.03;;;17.33;38.27
22649;BME280;11491;41.942;24.220;2023-03-31T10:01:44;89546.88;;;17.51;38.95
22649;BME280;11491;41.942;24.220;2023-03-31T10:04:19;89548.50;;;17.37;37.88
22649;BME280;11491;41.942;24.220;2023-03-31T10:06:47;89544.31;;;17.22;37.47
22649;BME280;11491;41.942;24.220;2023-03-31T10:09:16;89530.06;;;17.11;38.53
22649;BME280;11491;41.942;24.220;2023-03-31T10:11:58;89534.31;;;17.15;38.86
22649;BME280;11491;41.942;24.220;2023-03-31T10:14:34;89540.50;;;17.01;38.58
22649;BME280;11491;41.942;24.220;2023-03-31T10:17:05;89548.59;;;17.01;39.21
22649;BME280;11491;41.942;24.220;2023-03-31T10:19:33;89540.97;;;16.61;38.81
22649;BME280;11491;41.942;24.220;2023-03-31T10:22:03;89536.38;;;16.36;39.71
22649;BME280;11491;41.942;24.220;2023-03-31T10:24:40;89537.91;;;16.51;39.66
22649;BME280;11491;41.942;24.220;2023-03-31T10:27:20;89535.59;;;16.39;40.26
22649;BME280;11491;41.942;24.220;2023-03-31T10:29:50;89532.44;;;16.76;39.72
22649;BME280;11491;41.942;24.220;2023-03-31T10:32:22;89525.41;;;17.18;39.59
22649;BME280;11491;41.942;24.220;2023-03-31T10:34:50;89528.22;;;17.74;40.18
22649;BME280;11491;41.942;24.220;2023-03-31T10:37:19;89519.34;;;18.29;40.36
22649;BME280;11491;41.942;24.220;2023-03-31T10:39:55;89512.16;;;18.57;35.36
22649;BME280;11491;41.942;24.220;2023-03-31T10:42:24;89512.09;;;18.64;35.90
22649;BME280;11491;41.942;24.220;2023-03-31T10:45:09;89512.91;;;18.61;35.15
22649;BME280;11491;41.942;24.220;2023-03-31T10:47:38;89503.72;;;18.48;36.20
22649;BME280;11491;41.942;24.220;2023-03-31T10:50:13;89512.03;;;18.71;35.23
22649;BME280;11491;41.942;24.220;2023-03-31T10:52:43;89497.19;;;18.87;35.03
22649;BME280;11491;41.942;24.220;2023-03-31T10:55:12;89503.84;;;19.17;35.53
22649;BME280;11491;41.942;24.220;2023-03-31T10:57:47;89494.81;;;19.27;35.96
22649;BME280;11491;41.942;24.220;2023-03-31T11:00:23;89493.69;;;19.24;35.18
22649;BME280;11491;41.942;24.220;2023-03-31T11:03:17;89491.19;;;18.68;36.79
22649;BME280;11491;41.942;24.220;2023-03-31T11:05:49;89490.69;;;18.36;38.06
22649;BME280;11491;41.942;24.220;2023-03-31T11:08:28;89481.88;;;17.76;39.24
22649;BME280;11491;41.942;24.220;2023-03-31T11:11:10;89483.44;;;17.73;38.37
22649;BME280;11491;41.942;24.220;2023-03-31T11:13:47;89484.97;;;17.74;38.17
22649;BME280;11491;41.942;24.220;2023-03-31T11:16:21;89484.13;;;17.92;39.47
22649;BME280;11491;41.942;24.220;2023-03-31T11:19:00;89489.28;;;18.20;38.98
22649;BME280;11491;41.942;24.220;2023-03-31T11:21:37;89491.38;;;18.47;37.90
22649;BME280;11491;41.942;24.220;2023-03-31T11:24:20;89473.00;;;18.65;38.65
22649;BME280;11491;41.942;24.220;2023-03-31T11:26:57;89469.53;;;18.68;38.82
22649;BME280;11491;41.942;24.220;2023-03-31T11:29:33;89467.97;;;18.67;38.17
22649;BME280;11491;41.942;24.220;2023-03-31T11:32:33;89466.06;;;19.02;38.28
22649;BME280;11491;41.942;24.220;2023-03-31T11:35:12;89458.53;;;18.86;37.93
22649;BME280;11491;41.942;24.220;2023-03-31T11:37:56;89460.97;;;18.73;38.11
22649;BME280;11491;41.942;24.220;2023-03-31T11:40:37;89462.56;;;18.67;37.23
22649;BME280;11491;41.942;24.220;2023-03-31T11:43:09;89475.38;;;18.22;39.11
22649;BME280;11491;41.942;24.220;2023-03-31T11:45:41;89463.78;;;17.69;39.21
22649;BME280;11491;41.942;24.220;2023-03-31T11:48:15;89466.56;;;17.51;40.79
22649;BME280;11491;41.942;24.220;2023-03-31T11:50:44;89461.97;;;17.52;40.26
22649;BME280;11491;41.942;24.220;2023-03-31T11:53:15;89461.13;;;17.62;40.38
22649;BME280;11491;41.942;24.220;2023-03-31T11:55:42;89468.06;;;17.63;40.85
22649;BME280;11491;41.942;24.220;2023-03-31T11:58:14;89471.13;;;17.65;40.48
22649;BME280;11491;41.942;24.220;2023-03-31T12:00:47;89464.03;;;17.26;40.87
22649;BME280;11491;41.942;24.220;2023-03-31T12:03:20;89458.78;;;16.97;40.89
22649;BME280;11491;41.942;24.220;2023-03-31T12:05:51;89464.56;;;16.99;41.67
22649;BME280;11491;41.942;24.220;2023-03-31T12:08:26;89457.47;;;17.27;42.37
22649;BME280;11491;41.942;24.220;2023-03-31T12:10:59;89458.53;;;18.00;41.62
22649;BME280;11491;41.942;24.220;2023-03-31T12:13:35;89457.56;;;18.24;39.48
22649;BME280;11491;41.942;24.220;2023-03-31T12:16:10;89445.38;;;18.85;39.37
22649;BME280;11491;41.942;24.220;2023-03-31T12:18:40;89441.41;;;19.54;39.12
22649;BME280;11491;41.942;24.220;2023-03-31T12:21:09;89446.09;;;19.81;37.18
22649;BME280;11491;41.942;24.220;2023-03-31T12:23:42;89446.25;;;20.21;37.51
22649;BME280;11491;41.942;24.220;2023-03-31T12:26:16;89439.16;;;20.51;35.35
22649;BME280;11491;41.942;24.220;2023-03-31T12:28:52;89447.06;;;20.41;33.00
22649;BME280;11491;41.942;24.220;2023-03-31T12:31:23;89437.91;;;20.32;33.23
22649;BME280;11491;41.942;24.220;2023-03-31T12:33:55;89434.44;;;20.31;35.58
22649;BME280;11491;41.942;24.220;2023-03-31T12:36:34;89430.88;;;20.34;33.16
22649;BME280;11491;41.942;24.220;2023-03-31T12:39:16;89431.38;;;20.06;34.52
22649;BME280;11491;41.942;24.220;2023-03-31T12:41:59;89425.13;;;20.09;34.47
22649;BME280;11491;41.942;24.220;2023-03-31T12:44:37;89437.53;;;19.55;34.90
22649;BME280;11491;41.942;24.220;2023-03-31T12:47:21;89402.19;;;19.63;34.30
22649;BME280;11491;41.942;24.220;2023-03-31T12:53:03;89427.00;;;19.88;33.75
22649;BME280;11491;41.942;24.220;2023-03-31T12:55:37;89423.16;;;19.86;34.47
22649;BME280;11491;41.942;24.220;2023-03-31T12:58:39;89424.06;;;19.48;33.95
22649;BME280;11491;41.942;24.220;2023-03-31T13:01:08;89404.31;;;18.90;34.46
22649;BME280;11491;41.942;24.220;2023-03-31T13:03:42;89417.44;;;18.91;36.21
22649;BME280;11491;41.942;24.220;2023-03-31T13:06:11;89408.19;;;18.89;35.59
22649;BME280;11491;41.942;24.220;2023-03-31T13:08:58;89396.75;;;18.74;36.55
22649;BME280;11491;41.942;24.220;2023-03-31T13:11:36;89413.13;;;18.63;36.50
22649;BME280;11491;41.942;24.220;2023-03-31T13:14:05;89410.94;;;18.51;35.82
22649;BME280;11491;41.942;24.220;2023-03-31T13:16:37;89414.94;;;18.36;35.94
22649;BME280;11491;41.942;24.220;2023-03-31T13:19:05;89403.34;;;18.35;35.86
22649;BME280;11491;41.942;24.220;2023-03-31T13:21:51;89396.38;;;18.38;37.22
22649;BME280;11491;41.942;24.220;2023-03-31T13:24:20;89392.91;;;18.71;36.34